createdAt,value
2019-06-26T00:01:26.882Z,20.08
2019-06-26T00:06:31.518Z,19.87
2019-06-26T00:11:35.988Z,19.82
2019-06-26T00:16:40.624Z,19.72
2019-06-26T00:21:45.282Z,19.90
2019-06-26T00:26:49.851Z,19.95
2019-06-26T00:31:54.505Z,19.90
2019-06-26T00:36:59.141Z,19.95
2019-06-26T00:42:04.908Z,19.99
2019-06-26T00:47:09.622Z,20.05
2019-06-26T00:52:14.204Z,20.15
2019-06-26T00:57:18.819Z,20.21
2019-06-26T01:02:23.455Z,20.25
2019-06-26T01:07:28.071Z,20.26
2019-06-26T01:12:32.706Z,20.28
2019-06-26T01:17:37.380Z,20.32
2019-06-26T01:22:42.027Z,20.40
2019-06-26T01:27:46.592Z,20.27
2019-06-26T01:32:51.298Z,20.27
2019-06-26T01:37:55.981Z,20.38
2019-06-26T01:43:00.485Z,20.34
2019-06-26T01:48:05.056Z,20.30
2019-06-26T01:53:09.792Z,20.32
2019-06-26T01:58:14.409Z,20.38
2019-06-26T02:03:19.089Z,20.41
2019-06-26T02:08:23.649Z,20.42
2019-06-26T02:13:28.130Z,20.47
2019-06-26T02:18:36.885Z,20.25
2019-06-26T02:23:41.545Z,20.23
2019-06-26T02:28:46.084Z,20.30
2019-06-26T02:33:50.578Z,20.38
2019-06-26T02:38:55.244Z,20.28
2019-06-26T02:43:59.873Z,20.27
2019-06-26T02:49:04.504Z,20.03
2019-06-26T02:54:09.111Z,20.24
2019-06-26T02:59:13.780Z,20.29
2019-06-26T03:04:18.310Z,20.35
2019-06-26T03:09:23.071Z,20.39
2019-06-26T03:14:27.582Z,20.13
2019-06-26T03:19:32.131Z,20.31
2019-06-26T03:24:36.768Z,20.41
2019-06-26T03:29:41.452Z,20.57
2019-06-26T03:34:46.000Z,20.71
2019-06-26T03:39:50.568Z,20.54
2019-06-26T03:44:55.154Z,20.82
2019-06-26T03:49:59.743Z,21.08
2019-06-26T03:55:08.647Z,21.75
2019-06-26T04:00:13.892Z,22.75
2019-06-26T04:05:18.533Z,23.43
2019-06-26T04:10:23.171Z,24.28
2019-06-26T04:15:40.791Z,24.26
2019-06-26T04:20:34.275Z,23.95
2019-06-26T04:25:40.685Z,23.59
2019-06-26T04:30:45.282Z,23.91
2019-06-26T04:35:50.004Z,24.39
2019-06-26T04:40:54.802Z,24.37
2019-06-26T04:45:59.398Z,24.46
2019-06-26T04:51:03.965Z,24.76
2019-06-26T04:56:08.632Z,24.75
2019-06-26T05:01:13.331Z,24.66
2019-06-26T05:06:18.077Z,24.50
2019-06-26T05:11:22.699Z,23.54
2019-06-26T05:16:27.471Z,23.19
2019-06-26T05:21:32.099Z,22.66
2019-06-26T05:26:36.652Z,23.02
2019-06-26T05:31:41.265Z,22.90
2019-06-26T05:36:46.091Z,22.64
2019-06-26T05:41:50.748Z,22.28
2019-06-26T05:46:55.414Z,22.31
2019-06-26T05:52:02.075Z,22.32
2019-06-26T05:57:06.373Z,22.28
2019-06-26T06:02:11.068Z,22.38
2019-06-26T06:07:15.665Z,22.91
2019-06-26T06:12:21.412Z,22.80
2019-06-26T06:17:26.050Z,22.74
2019-06-26T06:22:30.650Z,22.81
2019-06-26T06:27:35.262Z,23.17
2019-06-26T06:32:39.883Z,23.69
2019-06-26T06:37:44.398Z,26.45
2019-06-26T06:42:48.977Z,26.64
2019-06-26T06:47:53.457Z,27.65
2019-06-26T06:52:58.141Z,26.86
2019-06-26T06:58:03.810Z,26.54
2019-06-26T07:03:08.375Z,25.86
2019-06-26T07:08:13.084Z,25.72
2019-06-26T07:13:17.704Z,25.22
2019-06-26T07:18:22.408Z,24.73
2019-06-26T07:23:27.105Z,24.16
2019-06-26T07:28:31.715Z,23.94
2019-06-26T07:33:37.308Z,23.79
2019-06-26T07:38:41.868Z,24.00
2019-06-26T07:43:46.519Z,24.26
2019-06-26T07:48:51.117Z,24.48
2019-06-26T07:53:55.685Z,25.31
2019-06-26T07:59:00.259Z,25.07
2019-06-26T08:04:04.995Z,24.55
2019-06-26T08:09:09.600Z,24.30
2019-06-26T08:14:14.151Z,24.36
2019-06-26T08:19:18.781Z,24.83
2019-06-26T08:24:23.367Z,24.77
2019-06-26T08:29:27.925Z,24.28
2019-06-26T08:34:32.393Z,23.91
2019-06-26T08:39:37.084Z,24.29
2019-06-26T08:44:43.137Z,24.74
2019-06-26T08:49:47.688Z,24.87
2019-06-26T08:54:52.312Z,24.80
2019-06-26T08:59:56.915Z,25.34
2019-06-26T09:05:01.459Z,24.96
2019-06-26T09:10:08.027Z,24.99
2019-06-26T09:15:13.109Z,27.31
2019-06-26T09:20:20.754Z,26.75
2019-06-26T09:25:25.428Z,26.55
2019-06-26T09:30:30.384Z,26.28
2019-06-26T09:35:35.123Z,26.41
2019-06-26T09:40:39.918Z,27.65
2019-06-26T09:45:45.641Z,26.90
2019-06-26T09:50:50.701Z,25.91
2019-06-26T09:55:55.371Z,25.55
2019-06-26T10:01:00.043Z,26.17
2019-06-26T10:06:04.637Z,26.34
2019-06-26T10:11:09.264Z,27.23
2019-06-26T10:16:13.945Z,28.97
2019-06-26T10:21:18.926Z,28.14
2019-06-26T10:26:23.600Z,29.19
2019-06-26T10:31:28.080Z,29.50
2019-06-26T10:36:32.797Z,29.75
2019-06-26T10:41:37.493Z,30.42
2019-06-26T10:46:42.127Z,30.19
2019-06-26T10:51:46.932Z,28.49
2019-06-26T10:56:51.547Z,27.61
2019-06-26T11:01:56.192Z,26.60
2019-06-26T11:07:00.891Z,26.10
2019-06-26T11:12:05.497Z,26.06
2019-06-26T11:17:10.120Z,26.16
2019-06-26T11:22:14.684Z,26.57
2019-06-26T11:27:19.223Z,26.28
2019-06-26T11:32:23.951Z,25.90
2019-06-26T11:37:28.582Z,25.76
2019-06-26T11:42:33.330Z,25.89
2019-06-26T11:47:38.268Z,26.19
2019-06-26T11:52:42.927Z,26.30
2019-06-26T11:57:47.971Z,26.32
2019-06-26T12:02:52.591Z,26.32
2019-06-26T12:07:57.264Z,26.37
2019-06-26T12:13:04.265Z,26.22
2019-06-26T12:18:08.134Z,26.29
2019-06-26T12:23:12.746Z,26.37
2019-06-26T12:28:17.500Z,26.54
2019-06-26T12:33:22.105Z,26.42
2019-06-26T12:38:26.693Z,27.00
2019-06-26T12:43:31.388Z,27.50
2019-06-26T12:48:37.484Z,26.88
2019-06-26T12:53:42.042Z,27.04
2019-06-26T12:58:46.678Z,26.88
2019-06-26T13:03:51.497Z,26.72
2019-06-26T13:08:56.231Z,26.69
2019-06-26T13:14:03.027Z,27.00
2019-06-26T13:19:07.117Z,26.84
2019-06-26T13:24:11.713Z,26.92
2019-06-26T13:29:17.952Z,26.89
2019-06-26T13:34:23.581Z,26.84
2019-06-26T13:39:28.210Z,26.81
2019-06-26T13:44:32.873Z,26.71
2019-06-26T13:49:37.427Z,26.82
2019-06-26T13:54:41.993Z,27.03
2019-06-26T13:59:46.671Z,26.97
2019-06-26T14:04:51.198Z,26.89
2019-06-26T14:09:55.765Z,26.98
2019-06-26T14:15:00.260Z,26.84
2019-06-26T14:20:06.481Z,26.95
2019-06-26T14:25:11.308Z,27.02
2019-06-26T14:30:16.291Z,26.58
2019-06-26T14:35:21.018Z,26.72
2019-06-26T14:40:25.654Z,26.78
2019-06-26T14:45:30.218Z,26.92
2019-06-26T14:50:34.866Z,26.76
2019-06-26T14:55:39.606Z,27.04
2019-06-26T15:00:44.236Z,26.89
2019-06-26T15:05:48.898Z,26.92
2019-06-26T15:10:53.461Z,26.85
2019-06-26T15:15:58.172Z,26.76
2019-06-26T15:21:02.821Z,26.96
2019-06-26T15:26:07.322Z,26.64
2019-06-26T15:31:12.036Z,26.45
2019-06-26T15:36:16.656Z,26.47
2019-06-26T15:41:21.452Z,26.49
2019-06-26T15:46:26.065Z,26.26
2019-06-26T15:51:30.693Z,26.42
2019-06-26T15:56:35.393Z,26.41
2019-06-26T16:01:39.878Z,26.32
2019-06-26T16:06:44.431Z,26.56
2019-06-26T16:11:49.014Z,26.32
2019-06-26T16:16:55.341Z,26.19
2019-06-26T16:21:59.877Z,26.04
2019-06-26T16:27:08.507Z,26.07
2019-06-26T16:32:14.021Z,25.91
2019-06-26T16:37:18.647Z,25.86
2019-06-26T16:42:23.137Z,25.78
2019-06-26T16:47:27.910Z,25.73
2019-06-26T16:52:47.837Z,25.88
2019-06-26T16:57:38.869Z,25.69
2019-06-26T17:02:43.507Z,25.53
2019-06-26T17:07:48.207Z,25.63
2019-06-26T17:12:52.779Z,25.67
2019-06-26T17:17:57.403Z,25.79
2019-06-26T17:23:06.013Z,25.69
2019-06-26T17:28:09.859Z,25.66
2019-06-26T17:33:14.432Z,25.57
2019-06-26T17:38:19.120Z,25.65
2019-06-26T17:43:23.711Z,26.01
2019-06-26T17:48:28.380Z,25.83
2019-06-26T17:53:32.965Z,25.49
2019-06-26T17:58:37.584Z,24.94
2019-06-26T18:03:42.176Z,24.82
2019-06-26T18:08:46.752Z,24.80
2019-06-26T18:13:51.266Z,24.71
2019-06-26T18:18:55.876Z,24.77
2019-06-26T18:24:00.381Z,24.70
2019-06-26T18:29:05.145Z,24.63
2019-06-26T18:34:09.842Z,24.60
2019-06-26T18:39:14.462Z,24.57
2019-06-26T18:44:18.936Z,24.54
2019-06-26T18:49:23.514Z,24.51
2019-06-26T18:54:28.062Z,24.38
2019-06-26T18:59:32.689Z,24.26
2019-06-26T19:04:37.385Z,24.13
2019-06-26T19:09:42.158Z,24.01
2019-06-26T19:14:46.954Z,23.88
2019-06-26T19:19:52.678Z,23.87
2019-06-26T19:24:57.453Z,23.86
2019-06-26T19:30:04.815Z,23.86
2019-06-26T19:35:19.227Z,23.92
2019-06-26T19:40:17.778Z,23.94
2019-06-26T19:45:22.874Z,23.87
2019-06-26T19:50:27.597Z,23.79
2019-06-26T19:55:32.361Z,23.77
2019-06-26T20:00:37.013Z,23.66
2019-06-26T20:05:41.858Z,23.68
2019-06-26T20:10:47.183Z,23.59
2019-06-26T20:15:52.377Z,23.47
2019-06-26T20:20:58.278Z,23.36
2019-06-26T20:26:04.172Z,23.35
2019-06-26T20:31:19.532Z,23.30
2019-06-26T20:36:27.789Z,23.29
2019-06-26T20:41:33.071Z,23.14
2019-06-26T20:59:18.989Z,22.92
2019-06-26T21:04:23.990Z,22.97
2019-06-26T21:09:28.788Z,22.87
2019-06-26T21:14:33.903Z,22.76
2019-06-26T21:19:38.717Z,22.79
2019-06-26T21:24:43.310Z,22.76
2019-06-26T21:29:47.993Z,22.42
2019-06-26T21:34:57.609Z,22.38
2019-06-26T21:40:02.205Z,22.29
2019-06-26T21:45:07.406Z,22.16
2019-06-26T21:50:13.245Z,22.08
2019-06-26T21:55:33.226Z,22.00
2019-06-26T22:00:42.516Z,21.91
2019-06-26T22:06:05.606Z,21.77
2019-06-26T22:11:11.794Z,21.65
2019-06-26T22:16:16.581Z,21.51
2019-06-26T22:21:21.208Z,21.35
2019-06-26T22:26:25.842Z,21.28
2019-06-26T22:31:30.640Z,21.20
2019-06-26T22:36:35.281Z,21.15
2019-06-26T22:41:39.988Z,21.13
2019-06-26T22:46:44.584Z,21.05
2019-06-26T22:51:49.603Z,21.00
2019-06-26T22:56:54.159Z,20.84
2019-06-26T23:01:58.812Z,20.85
2019-06-26T23:07:03.403Z,20.75
2019-06-26T23:12:08.063Z,20.73
2019-06-26T23:17:13.776Z,20.70
2019-06-26T23:22:18.355Z,20.68
2019-06-26T23:27:22.985Z,20.61
2019-06-26T23:32:27.543Z,20.51
2019-06-26T23:37:32.154Z,20.48
2019-06-26T23:42:36.874Z,20.41
2019-06-26T23:47:41.471Z,20.40
2019-06-26T23:52:46.043Z,20.37
2019-06-26T23:57:58.885Z,20.29
